Time,TemperatureF,DewpointF,PressureIn,WindDirection,WindDirectionDegrees,WindSpeedMPH,WindSpeedGustMPH,Humidity,HourlyPrecipIn,Conditions,Clouds,dailyrainin,SolarRadiationWatts/m^2,SoftwareType,DateUTC
2013-04-01 00:02:00,41.0,24.0,-100.00,North,5,12.0,17.0,51,0.00,,,0.00,0.000000,,2013-04-01 06:02:00,
2013-04-01 00:33:00,40.0,24.0,-100.00,North,6,14.0,20.0,53,0.00,,,0.00,0.000000,,2013-04-01 06:33:00,
2013-04-01 00:43:00,40.0,24.0,-100.00,North,6,14.0,20.0,53,0.00,,,0.00,0.000000,,2013-04-01 06:43:00,
2013-04-01 00:52:00,40.0,24.0,-100.00,North,6,14.0,20.0,53,0.00,,,0.00,0.000000,,2013-04-01 06:52:00,
2013-04-01 01:02:00,40.0,24.0,-100.00,North,6,14.0,20.0,53,0.00,,,0.00,0.000000,,2013-04-01 07:02:00,
2013-04-01 01:32:00,38.0,24.0,-100.00,North,9,11.0,17.0,56,0.00,,,-99.99,0.000000,,2013-04-01 07:32:00,
2013-04-01 01:43:00,38.0,24.0,-100.00,North,9,11.0,17.0,56,0.00,,,-99.99,0.000000,,2013-04-01 07:43:00,
2013-04-01 01:52:00,38.0,24.0,-100.00,North,9,11.0,17.0,56,0.00,,,-99.99,0.000000,,2013-04-01 07:52:00,
2013-04-01 02:02:00,38.0,24.0,-100.00,North,9,11.0,17.0,56,0.00,,,-99.99,0.000000,,2013-04-01 08:02:00,
2013-04-01 02:32:00,37.0,23.0,-100.00,North,3,12.0,17.0,57,-99.99,,,0.00,0.000000,,2013-04-01 08:32:00,
2013-04-01 02:43:00,37.0,23.0,-100.00,North,3,12.0,17.0,57,-99.99,,,0.00,0.000000,,2013-04-01 08:43:00,
2013-04-01 02:53:00,37.0,23.0,-100.00,North,3,12.0,17.0,57,-99.99,,,0.00,0.000000,,2013-04-01 08:53:00,
2013-04-01 03:02:00,37.0,23.0,-100.00,North,3,12.0,17.0,57,-99.99,,,0.00,0.000000,,2013-04-01 09:02:00,
2013-04-01 03:33:00,37.0,23.0,-100.00,North,6,9.0,16.0,57,0.00,,,0.00,0.000000,,2013-04-01 09:33:00,
2013-04-01 03:43:00,37.0,23.0,-100.00,North,6,9.0,16.0,57,0.00,,,0.00,0.000000,,2013-04-01 09:43:00,
2013-04-01 03:53:00,37.0,23.0,-100.00,North,6,9.0,16.0,57,0.00,,,0.00,0.000000,,2013-04-01 09:53:00,
2013-04-01 04:02:00,37.0,23.0,-100.00,North,6,9.0,16.0,57,0.00,,,0.00,0.000000,,2013-04-01 10:02:00,
2013-04-01 04:34:00,35.0,23.0,-100.00,North,11,10.0,15.0,61,0.00,,,0.00,0.000000,,2013-04-01 10:34:00,
2013-04-01 04:42:00,35.0,23.0,-100.00,North,11,10.0,15.0,61,0.00,,,0.00,0.000000,,2013-04-01 10:42:00,
2013-04-01 04:53:00,35.0,23.0,-100.00,North,11,10.0,15.0,61,0.00,,,0.00,0.000000,,2013-04-01 10:53:00,
2013-04-01 05:02:00,35.0,23.0,-100.00,North,11,10.0,15.0,61,0.00,,,0.00,0.000000,,2013-04-01 11:02:00,
2013-04-01 05:33:00,35.0,23.0,-100.00,NNE,12,11.0,14.0,61,0.00,,,0.00,0.000000,,2013-04-01 11:33:00,
2013-04-01 05:43:00,35.0,23.0,-100.00,NNE,12,11.0,14.0,61,0.00,,,0.00,0.000000,,2013-04-01 11:43:00,
2013-04-01 05:53:00,35.0,23.0,-100.00,NNE,12,11.0,14.0,61,0.00,,,0.00,0.000000,,2013-04-01 11:53:00,
2013-04-01 06:02:00,35.0,23.0,-100.00,NNE,12,11.0,14.0,61,0.00,,,0.00,0.000000,,2013-04-01 12:02:00,
2013-04-01 06:32:00,33.0,23.0,-100.00,NNE,12,10.0,15.0,65,0.00,,,-99.99,0.000000,,2013-04-01 12:32:00,
2013-04-01 06:43:00,33.0,23.0,-100.00,NNE,12,10.0,15.0,65,0.00,,,-99.99,0.000000,,2013-04-01 12:43:00,
2013-04-01 06:53:00,33.0,23.0,-100.00,NNE,12,10.0,15.0,65,0.00,,,-99.99,0.000000,,2013-04-01 12:53:00,
2013-04-01 07:02:00,33.0,23.0,-100.00,NNE,12,10.0,15.0,65,0.00,,,-99.99,0.000000,,2013-04-01 13:02:00,
2013-04-01 07:33:00,35.0,23.0,-100.00,NNE,13,10.0,13.0,61,0.00,,,0.00,0.000000,,2013-04-01 13:33:00,
2013-04-01 07:43:00,35.0,23.0,-100.00,NNE,13,10.0,13.0,61,0.00,,,0.00,0.000000,,2013-04-01 13:43:00,
2013-04-01 07:52:00,35.0,23.0,-100.00,NNE,13,10.0,13.0,61,0.00,,,0.00,0.000000,,2013-04-01 13:52:00,
2013-04-01 08:02:00,35.0,23.0,-100.00,NNE,13,10.0,13.0,61,0.00,,,0.00,0.000000,,2013-04-01 14:02:00,
2013-04-01 08:33:00,34.0,23.0,-100.00,North,9,10.0,13.0,63,0.00,,,0.00,42.000000,,2013-04-01 14:33:00,
2013-04-01 08:42:00,34.0,23.0,-100.00,North,9,10.0,13.0,63,0.00,,,0.00,42.000000,,2013-04-01 14:42:00,
2013-04-01 08:53:00,34.0,23.0,-100.00,North,9,10.0,13.0,63,0.00,,,0.00,42.000000,,2013-04-01 14:53:00,
2013-04-01 09:02:00,34.0,23.0,-100.00,North,9,10.0,13.0,63,0.00,,,0.00,42.000000,,2013-04-01 15:02:00,
2013-04-01 09:34:00,37.0,23.0,-100.00,NNE,12,10.0,15.0,57,0.00,,,0.00,38.000000,,2013-04-01 15:34:00,
2013-04-01 09:43:00,37.0,23.0,-100.00,NNE,12,10.0,15.0,57,0.00,,,0.00,38.000000,,2013-04-01 15:43:00,
2013-04-01 09:53:00,37.0,23.0,-100.00,NNE,12,10.0,15.0,57,0.00,,,0.00,38.000000,,2013-04-01 15:53:00,
2013-04-01 10:02:00,37.0,23.0,-100.00,NNE,12,10.0,15.0,57,0.00,,,0.00,38.000000,,2013-04-01 16:02:00,
2013-04-01 11:32:00,47.0,25.0,-100.00,WSW,240,4.0,8.0,42,-99.99,,,0.00,639.000000,,2013-04-01 17:32:00,
2013-04-01 11:42:00,47.0,25.0,-100.00,WSW,240,4.0,8.0,42,-99.99,,,0.00,639.000000,,2013-04-01 17:42:00,
2013-04-01 11:53:00,47.0,25.0,-100.00,WSW,240,4.0,8.0,42,-99.99,,,0.00,639.000000,,2013-04-01 17:53:00,
2013-04-01 12:02:00,47.0,25.0,-100.00,WSW,240,4.0,8.0,42,-99.99,,,0.00,639.000000,,2013-04-01 18:02:00,
2013-04-01 12:33:00,49.0,24.0,-100.00,SSW,193,8.0,12.0,37,0.00,,,0.00,815.000000,,2013-04-01 18:33:00,
2013-04-01 12:43:00,49.0,24.0,-100.00,SSW,193,8.0,12.0,37,0.00,,,0.00,815.000000,,2013-04-01 18:43:00,
2013-04-01 12:53:00,49.0,24.0,-100.00,SSW,193,8.0,12.0,37,0.00,,,0.00,815.000000,,2013-04-01 18:53:00,
2013-04-01 13:03:00,49.0,24.0,-100.00,SSW,193,8.0,12.0,37,0.00,,,0.00,815.000000,,2013-04-01 19:03:00,
2013-04-01 13:32:00,51.0,24.0,-100.00,SSW,200,11.0,15.0,35,0.00,,,0.00,828.000000,,2013-04-01 19:32:00,
2013-04-01 13:42:00,51.0,24.0,-100.00,SSW,200,11.0,15.0,35,0.00,,,0.00,828.000000,,2013-04-01 19:42:00,
2013-04-01 13:53:00,51.0,24.0,-100.00,SSW,200,11.0,15.0,35,0.00,,,0.00,828.000000,,2013-04-01 19:53:00,
2013-04-01 14:02:00,51.0,24.0,-100.00,SSW,200,11.0,15.0,35,0.00,,,0.00,828.000000,,2013-04-01 20:02:00,
2013-04-01 14:33:00,54.0,25.0,-100.00,SSW,203,11.0,19.0,32,0.00,,,0.00,886.000000,,2013-04-01 20:33:00,
2013-04-01 14:43:00,54.0,25.0,-100.00,SSW,203,11.0,19.0,32,0.00,,,0.00,886.000000,,2013-04-01 20:43:00,
2013-04-01 14:52:00,54.0,25.0,-100.00,SSW,203,11.0,19.0,32,0.00,,,0.00,886.000000,,2013-04-01 20:52:00,
2013-04-01 15:02:00,54.0,25.0,-100.00,SSW,203,11.0,19.0,32,0.00,,,0.00,886.000000,,2013-04-01 21:02:00,
2013-04-01 15:33:00,54.0,26.0,-100.00,SW,215,12.0,19.0,33,0.00,,,0.00,836.000000,,2013-04-01 21:33:00,
2013-04-01 15:43:00,54.0,26.0,-100.00,SW,215,12.0,19.0,33,0.00,,,0.00,836.000000,,2013-04-01 21:43:00,
2013-04-01 15:53:00,54.0,26.0,-100.00,SW,215,12.0,19.0,33,0.00,,,0.00,836.000000,,2013-04-01 21:53:00,
2013-04-01 16:02:00,54.0,26.0,-100.00,SW,215,12.0,19.0,33,0.00,,,0.00,836.000000,,2013-04-01 22:02:00,
2013-04-01 16:33:00,55.0,25.0,-100.00,SSW,209,14.0,21.0,31,0.00,,,0.00,810.000000,,2013-04-01 22:33:00,
2013-04-01 16:43:00,55.0,25.0,-100.00,SSW,209,14.0,21.0,31,0.00,,,0.00,810.000000,,2013-04-01 22:43:00,
2013-04-01 16:52:00,55.0,25.0,-100.00,SSW,209,14.0,21.0,31,0.00,,,0.00,810.000000,,2013-04-01 22:52:00,
2013-04-01 17:02:00,55.0,25.0,-100.00,SSW,209,14.0,21.0,31,0.00,,,0.00,810.000000,,2013-04-01 23:02:00,
2013-04-01 17:32:00,56.0,26.0,-100.00,SW,230,10.0,20.0,31,0.00,,,0.00,712.000000,,2013-04-01 23:32:00,
2013-04-01 17:43:00,56.0,26.0,-100.00,SW,230,10.0,20.0,31,0.00,,,0.00,712.000000,,2013-04-01 23:43:00,
2013-04-01 17:53:00,56.0,26.0,-100.00,SW,230,10.0,20.0,31,0.00,,,0.00,712.000000,,2013-04-01 23:53:00,
2013-04-01 18:02:00,56.0,26.0,-100.00,SW,230,10.0,20.0,31,0.00,,,0.00,712.000000,,2013-04-02 00:02:00,
2013-04-01 18:33:00,53.0,23.0,-100.00,SSW,202,12.0,21.0,31,0.00,,,0.00,401.000000,,2013-04-02 00:33:00,
2013-04-01 18:43:00,53.0,23.0,-100.00,SSW,202,12.0,21.0,31,0.00,,,0.00,401.000000,,2013-04-02 00:43:00,
2013-04-01 18:53:00,53.0,23.0,-100.00,SSW,202,12.0,21.0,31,0.00,,,0.00,401.000000,,2013-04-02 00:53:00,
2013-04-01 19:02:00,53.0,23.0,-100.00,SSW,202,12.0,21.0,31,0.00,,,0.00,401.000000,,2013-04-02 01:02:00,
2013-04-01 19:32:00,52.0,25.0,-100.00,NW,310,9.0,18.0,35,0.00,,,0.00,224.000000,,2013-04-02 01:32:00,
2013-04-01 19:43:00,52.0,25.0,-100.00,NW,310,9.0,18.0,35,0.00,,,0.00,224.000000,,2013-04-02 01:43:00,
2013-04-01 19:53:00,52.0,25.0,-100.00,NW,310,9.0,18.0,35,0.00,,,0.00,224.000000,,2013-04-02 01:53:00,
2013-04-01 20:02:00,52.0,25.0,-100.00,NW,310,9.0,18.0,35,0.00,,,0.00,224.000000,,2013-04-02 02:02:00,
2013-04-01 20:33:00,48.0,25.0,-100.00,North,359,7.0,13.0,41,0.00,,,0.00,55.000000,,2013-04-02 02:33:00,
2013-04-01 20:42:00,48.0,25.0,-100.00,North,359,7.0,13.0,41,0.00,,,0.00,55.000000,,2013-04-02 02:42:00,
2013-04-01 20:52:00,48.0,25.0,-100.00,North,359,7.0,13.0,41,0.00,,,0.00,55.000000,,2013-04-02 02:52:00,
2013-04-01 21:01:00,48.0,25.0,-100.00,North,359,7.0,13.0,41,0.00,,,0.00,55.000000,,2013-04-02 03:01:00,
2013-04-01 21:33:00,46.0,24.0,-100.00,North,4,8.0,12.0,41,0.00,,,0.00,0.000000,,2013-04-02 03:33:00,
2013-04-01 21:43:00,46.0,24.0,-100.00,North,4,8.0,12.0,41,0.00,,,0.00,0.000000,,2013-04-02 03:43:00,
2013-04-01 21:53:00,46.0,24.0,-100.00,North,4,8.0,12.0,41,0.00,,,0.00,0.000000,,2013-04-02 03:53:00,
2013-04-01 22:02:00,46.0,24.0,-100.00,North,4,8.0,12.0,41,0.00,,,0.00,0.000000,,2013-04-02 04:02:00,
2013-04-01 22:33:00,44.0,22.0,-100.00,North,7,8.0,12.0,42,0.00,,,0.00,0.000000,,2013-04-02 04:33:00,
2013-04-01 22:43:00,44.0,22.0,-100.00,North,7,8.0,12.0,42,0.00,,,0.00,0.000000,,2013-04-02 04:43:00,
2013-04-01 22:53:00,44.0,22.0,-100.00,North,7,8.0,12.0,42,0.00,,,0.00,0.000000,,2013-04-02 04:53:00,
2013-04-01 23:02:00,44.0,22.0,-100.00,North,7,8.0,12.0,42,0.00,,,0.00,0.000000,,2013-04-02 05:02:00,
2013-04-01 23:32:00,44.0,23.0,-100.00,West,273,3.0,9.0,44,-99.99,,,0.00,0.000000,,2013-04-02 05:32:00,
2013-04-01 23:43:00,44.0,23.0,-100.00,West,273,3.0,9.0,44,-99.99,,,0.00,0.000000,,2013-04-02 05:43:00,
2013-04-01 23:52:00,44.0,23.0,-100.00,West,273,3.0,9.0,44,-99.99,,,0.00,0.000000,,2013-04-02 05:52:00,